Terminal Aerodrome Forecast
Issued by NWS

Current Version | Previous Version | Graphics & Text | Print | Product List | Glossary On
Versions: 1 2 3 4 5 6 7 8 9 10 11 12 13 14 15 16
000
FTUS41 KPBZ 251459 AAA
TAFMGW
TAF AMD
KMGW 251459Z 2515/2612 VRB03KT P6SM BKN035
     FM251900 31007KT P6SM VCSH OVC015
     FM260000 31009KT P6SM OVC015=

USA.gov is the U.S. government's official web portal to all federal, state and local government web resources and services.